PWSweather.com
Personal Weather Stations
Station Observations
WISCHPK61
Green Bay Schmitt Park, Green Bay, WI 54311

Green Bay Schmitt ParkGreen Bay, WI 54311

Lat: 44.514277, Lon: -87.935067

Elevation: 735

Station Type: Acu Rite Pro Weather Center model 02032C

http://greenbayweathercam.com

High Low Average
Temperature 85.1°F29.5°C 61.5°F16.4°C 72.9°F22.7°C
Dew Point 84.8°F29.3°C 61.2°F16.2°C 72.6°F22.6°C
Winds 3.5 mph 5.6 kmh Calm Calm Calm SWCalm SW
Wind Gusts 3.5 mph5.6 kmh -- --
Humidity 99% 99% 99%
Pressure 29.23 in989.8 mb 29.13 in986.5 mb -
Precipitation 0.00 in0.0 mm - -
Hour Temp Dew Point Humidity Winds Wind Gusts Pressure Precip Precip Rate Daily Precip Total
12:00 AM 62.8°F17.1°C 62.5°F16.9°C 99% Calm Calm -- 29.23 in989.8 mb - 0.00 in0.0 mm 0.00 in0.0 mm
01:00 AM 61.8°F16.6°C 61.6°F16.4°C 99% Calm Calm -- 29.22 in989.5 mb - 0.00 in0.0 mm 0.00 in0.0 mm
02:00 AM 61.5°F16.4°C 61.2°F16.2°C 99% Calm Calm -- 29.22 in989.5 mb - 0.00 in0.0 mm 0.00 in0.0 mm
03:00 AM 61.7°F16.5°C 61.4°F16.3°C 99% Calm Calm -- 29.22 in989.5 mb - 0.00 in0.0 mm 0.00 in0.0 mm
04:00 AM 62.6°F17.0°C 62.3°F16.8°C 99% Calm Calm -- 29.21 in989.2 mb - 0.00 in0.0 mm 0.00 in0.0 mm
05:00 AM 62.6°F17.0°C 62.3°F16.8°C 99% Calm Calm -- 29.22 in989.5 mb - 0.00 in0.0 mm 0.00 in0.0 mm
06:00 AM 63.3°F17.4°C 63.0°F17.2°C 99% Calm Calm -- 29.22 in989.5 mb - 0.00 in0.0 mm 0.00 in0.0 mm
07:00 AM 65.0°F18.3°C 64.7°F18.2°C 99% Calm Calm -- 29.22 in989.5 mb - 0.00 in0.0 mm 0.00 in0.0 mm
08:00 AM 67.6°F19.8°C 67.3°F19.6°C 99% Calm Calm -- 29.23 in989.8 mb - 0.00 in0.0 mm 0.00 in0.0 mm
09:00 AM 73.6°F23.1°C 73.3°F22.9°C 99% Calm Calm -- 29.22 in989.5 mb - 0.00 in0.0 mm 0.00 in0.0 mm
10:00 AM 75.6°F24.2°C 75.3°F24.1°C 99% Calm Calm -- 29.21 in989.2 mb - 0.00 in0.0 mm 0.00 in0.0 mm
11:00 AM 78.9°F26.1°C 78.6°F25.9°C 99% Calm Calm 1.2 mph1.9 kmh 29.21 in989.2 mb - 0.00 in0.0 mm 0.00 in0.0 mm
12:00 PM 81.3°F27.4°C 81.0°F27.2°C 99% 3.5 mph NW5.6 kmh NW 3.5 mph5.6 kmh 29.20 in988.8 mb - 0.00 in0.0 mm 0.00 in0.0 mm
01:00 PM 85.1°F29.5°C 84.8°F29.3°C 99% Calm Calm -- 29.19 in988.5 mb - 0.00 in0.0 mm 0.00 in0.0 mm
02:00 PM 84.1°F28.9°C 83.8°F28.8°C 99% 2.3 mph W3.7 kmh W 2.3 mph3.7 kmh 29.18 in988.1 mb - 0.00 in0.0 mm 0.00 in0.0 mm
03:00 PM 83.1°F28.4°C 82.8°F28.2°C 99% Calm Calm -- 29.17 in987.8 mb - 0.00 in0.0 mm 0.00 in0.0 mm
04:00 PM 82.6°F28.1°C 82.3°F27.9°C 99% 1.2 mph WNW1.9 kmh WNW 2.3 mph3.7 kmh 29.15 in987.1 mb - 0.00 in0.0 mm 0.00 in0.0 mm
05:00 PM 82.0°F27.8°C 81.7°F27.6°C 99% 1.2 mph WNW1.9 kmh WNW -- 29.15 in987.1 mb - 0.00 in0.0 mm 0.00 in0.0 mm
06:00 PM 81.2°F27.3°C 80.9°F27.2°C 99% Calm Calm -- 29.13 in986.5 mb - 0.00 in0.0 mm 0.00 in0.0 mm
07:00 PM 77.5°F25.3°C 77.2°F25.1°C 99% Calm Calm -- 29.14 in986.8 mb - 0.00 in0.0 mm 0.00 in0.0 mm
08:00 PM 75.2°F24.0°C 74.9°F23.8°C 99% Calm Calm -- 29.14 in986.8 mb - 0.00 in0.0 mm 0.00 in0.0 mm
09:00 PM 73.9°F23.3°C 73.6°F23.1°C 99% Calm Calm -- 29.15 in987.1 mb - 0.00 in0.0 mm 0.00 in0.0 mm
10:00 PM 73.6°F23.1°C 73.3°F22.9°C 99% Calm Calm -- 29.16 in987.5 mb - 0.00 in0.0 mm 0.00 in0.0 mm
11:00 PM 73.4°F23.0°C 73.1°F22.8°C 99% Calm Calm -- 29.15 in987.1 mb - 0.00 in0.0 mm 0.00 in0.0 mm